createdAt,value
2023-09-17T00:01:58.930Z,7.13
2023-09-17T00:07:01.785Z,28.17
2023-09-17T00:12:05.044Z,11.13
2023-09-17T00:17:07.941Z,20.42
2023-09-17T00:22:13.016Z,16.50
2023-09-17T00:27:15.808Z,15.55
2023-09-17T00:32:19.492Z,12.10
2023-09-17T00:37:22.346Z,12.55
2023-09-17T00:42:25.631Z,12.88
2023-09-17T00:47:28.592Z,11.60
2023-09-17T00:52:32.008Z,9.90
2023-09-17T00:57:35.426Z,10.00
2023-09-17T01:02:39.381Z,9.18
2023-09-17T01:07:42.793Z,8.45
2023-09-17T01:12:45.663Z,7.88
2023-09-17T01:17:54.523Z,8.27
2023-09-17T01:23:12.220Z,8.48
2023-09-17T01:28:15.331Z,29.42
2023-09-17T01:33:18.119Z,18.70
2023-09-17T01:38:24.813Z,20.73
2023-09-17T01:43:29.260Z,18.80
2023-09-17T01:48:33.480Z,15.57
2023-09-17T01:53:36.605Z,14.32
2023-09-17T01:58:39.340Z,13.35
2023-09-17T02:03:42.586Z,12.75
2023-09-17T02:08:45.375Z,12.23
2023-09-17T02:13:48.316Z,11.93
2023-09-17T02:18:52.648Z,11.52
2023-09-17T02:23:56.299Z,11.60
2023-09-17T02:28:59.483Z,12.32
2023-09-17T02:34:02.129Z,12.23
2023-09-17T02:39:05.401Z,11.63
2023-09-17T02:44:08.051Z,10.30
2023-09-17T02:49:11.131Z,10.38
2023-09-17T02:54:13.815Z,11.15
2023-09-17T02:59:16.722Z,11.07
2023-09-17T03:04:19.542Z,9.80
2023-09-17T03:09:22.337Z,11.88
2023-09-17T03:14:27.305Z,10.80
2023-09-17T03:19:31.292Z,10.75
2023-09-17T03:24:34.037Z,10.48
2023-09-17T03:29:36.917Z,9.70
2023-09-17T03:34:40.599Z,9.63
2023-09-17T03:39:44.719Z,9.75
2023-09-17T03:44:47.629Z,9.65
2023-09-17T03:49:50.463Z,10.13
2023-09-17T03:54:53.697Z,10.02
2023-09-17T03:59:56.556Z,9.35
2023-09-17T04:04:59.380Z,9.30
2023-09-17T04:10:04.071Z,9.20
2023-09-17T04:15:14.474Z,10.38
2023-09-17T04:20:19.828Z,9.82
2023-09-17T04:25:27.365Z,10.77
2023-09-17T04:30:31.256Z,10.95
2023-09-17T04:35:34.104Z,11.18
2023-09-17T04:40:37.253Z,11.80
2023-09-17T04:45:45.503Z,11.45
2023-09-17T04:56:11.030Z,11.80
2023-09-17T05:01:16.537Z,12.00
2023-09-17T05:06:20.170Z,12.70
2023-09-17T05:11:23.443Z,13.75
2023-09-17T05:16:26.331Z,12.25
2023-09-17T05:21:29.116Z,14.13
2023-09-17T05:26:32.775Z,12.50
2023-09-17T05:31:35.697Z,12.82
2023-09-17T05:36:38.820Z,13.40
2023-09-17T05:41:41.764Z,14.27
2023-09-17T05:46:44.732Z,13.52
2023-09-17T05:51:47.798Z,13.25
2023-09-17T05:56:54.681Z,15.88
2023-09-17T06:01:59.495Z,14.80
2023-09-17T06:07:02.416Z,16.20
2023-09-17T06:12:06.184Z,14.50
2023-09-17T06:17:09.682Z,15.43
2023-09-17T06:22:12.812Z,15.40
2023-09-17T06:27:15.684Z,15.40
2023-09-17T06:32:19.420Z,16.77
2023-09-17T06:37:22.425Z,15.18
2023-09-17T06:42:26.234Z,14.85
2023-09-17T06:47:29.156Z,14.02
2023-09-17T06:52:32.009Z,14.38
2023-09-17T06:57:34.736Z,13.55
2023-09-17T07:02:37.343Z,12.80
2023-09-17T07:07:40.034Z,13.23
2023-09-17T07:12:43.617Z,11.50
2023-09-17T07:17:46.396Z,9.85
2023-09-17T07:22:49.745Z,7.90
2023-09-17T07:27:52.453Z,7.55
2023-09-17T07:32:55.742Z,7.38
2023-09-17T07:37:58.575Z,6.68
2023-09-17T07:43:02.557Z,5.20
2023-09-17T07:48:07.241Z,5.95
2023-09-17T07:53:10.124Z,4.80
2023-09-17T07:58:12.747Z,5.78
2023-09-17T08:03:17.775Z,5.85
2023-09-17T08:08:20.422Z,5.38
2023-09-17T08:13:23.332Z,5.55
2023-09-17T08:18:26.385Z,6.18
2023-09-17T08:23:29.056Z,5.57
2023-09-17T08:28:51.689Z,5.13
2023-09-17T08:34:18.263Z,5.20
2023-09-17T08:39:28.882Z,5.22
2023-09-17T08:44:34.868Z,5.50
2023-09-17T08:49:37.646Z,5.05
2023-09-17T08:54:43.421Z,4.95
2023-09-17T08:59:54.052Z,4.22
2023-09-17T09:04:58.275Z,5.03
2023-09-17T09:10:02.733Z,4.45
2023-09-17T09:15:08.438Z,4.15
2023-09-17T09:20:18.133Z,4.63
2023-09-17T09:25:21.011Z,3.90
2023-09-17T09:30:23.796Z,3.05
2023-09-17T09:35:26.720Z,3.53
2023-09-17T09:40:30.250Z,3.10
2023-09-17T09:45:34.626Z,3.50
2023-09-17T09:50:37.432Z,3.00
2023-09-17T09:55:40.406Z,3.03
2023-09-17T10:00:46.350Z,2.90
2023-09-17T10:05:50.067Z,3.25
2023-09-17T10:10:52.777Z,3.00
2023-09-17T10:15:56.566Z,3.40
2023-09-17T10:21:01.070Z,3.20
2023-09-17T10:26:04.989Z,2.85
2023-09-17T10:31:10.001Z,2.80
2023-09-17T10:36:13.731Z,2.50
2023-09-17T10:41:17.186Z,2.97
2023-09-17T10:46:22.821Z,2.60
2023-09-17T10:51:28.397Z,2.97
2023-09-17T10:56:31.731Z,2.72
2023-09-17T11:01:36.087Z,2.30
2023-09-17T11:06:40.950Z,2.75
2023-09-17T11:11:44.766Z,2.78
2023-09-17T11:16:49.661Z,2.28
2023-09-17T11:22:09.642Z,2.63
2023-09-17T11:27:13.584Z,2.17
2023-09-17T11:32:23.388Z,2.13
2023-09-17T11:37:26.838Z,2.00
2023-09-17T11:42:29.737Z,2.10
2023-09-17T11:47:32.474Z,2.10
2023-09-17T11:52:35.295Z,2.15
2023-09-17T11:57:38.140Z,2.03
2023-09-17T12:02:43.962Z,2.17
2023-09-17T12:07:55.189Z,2.15
2023-09-17T12:13:00.835Z,2.20
2023-09-17T12:18:04.540Z,2.22
2023-09-17T12:23:15.480Z,2.50
2023-09-17T12:28:29.118Z,2.40
2023-09-17T12:33:31.979Z,2.20
2023-09-17T12:38:34.590Z,2.25
2023-09-17T12:43:37.258Z,2.33
2023-09-17T12:48:40.359Z,2.30
2023-09-17T12:53:44.829Z,2.10
2023-09-17T12:58:51.620Z,2.15
2023-09-17T13:04:05.240Z,2.15
2023-09-17T13:09:10.365Z,2.15
2023-09-17T13:14:13.092Z,2.35
2023-09-17T13:19:16.013Z,2.33
2023-09-17T13:24:19.783Z,2.30
2023-09-17T13:29:22.452Z,2.53
2023-09-17T13:34:25.082Z,2.10
2023-09-17T13:39:27.983Z,2.33
2023-09-17T13:44:30.735Z,2.47
2023-09-17T13:49:33.412Z,2.15
2023-09-17T13:54:38.951Z,2.65
2023-09-17T13:59:41.768Z,2.40
2023-09-17T14:04:44.895Z,2.95
2023-09-17T14:09:47.614Z,2.80
2023-09-17T14:14:50.232Z,2.97
2023-09-17T14:19:52.857Z,3.35
2023-09-17T14:24:55.559Z,2.63
2023-09-17T14:29:58.161Z,2.88
2023-09-17T14:35:00.781Z,3.55
2023-09-17T14:40:03.434Z,3.47
2023-09-17T14:45:07.193Z,3.20
2023-09-17T14:50:11.846Z,3.53
2023-09-17T14:55:14.618Z,3.50
2023-09-17T15:00:17.850Z,3.92
2023-09-17T15:05:20.880Z,4.00
2023-09-17T15:10:23.584Z,3.50
2023-09-17T15:15:26.237Z,3.78
2023-09-17T15:20:31.381Z,3.63
2023-09-17T15:25:35.062Z,4.05
2023-09-17T15:30:37.693Z,3.78
2023-09-17T15:35:41.823Z,4.10
2023-09-17T15:40:44.618Z,4.88
2023-09-17T15:45:47.240Z,4.32
2023-09-17T15:50:52.816Z,5.70
2023-09-17T15:55:55.612Z,5.20
2023-09-17T16:00:58.630Z,5.05
2023-09-17T16:06:01.810Z,5.40
2023-09-17T16:11:04.749Z,4.93
2023-09-17T16:16:07.710Z,6.20
2023-09-17T16:21:11.565Z,6.35
2023-09-17T16:26:15.481Z,6.43
2023-09-17T16:31:18.698Z,6.25
2023-09-17T16:36:21.469Z,7.13
2023-09-17T16:41:24.468Z,6.93
2023-09-17T16:46:27.294Z,5.72
2023-09-17T16:51:30.081Z,6.03
2023-09-17T16:56:32.815Z,6.53
2023-09-17T17:01:36.585Z,6.38
2023-09-17T17:06:39.623Z,6.75
2023-09-17T17:11:42.776Z,7.18
2023-09-17T17:16:45.726Z,7.28
2023-09-17T17:21:48.569Z,6.40
2023-09-17T17:26:52.268Z,7.18
2023-09-17T17:31:55.234Z,7.85
2023-09-17T17:37:01.228Z,9.48
2023-09-17T17:42:04.891Z,7.10
2023-09-17T17:47:07.583Z,7.55
2023-09-17T17:52:10.246Z,7.53
2023-09-17T17:57:12.984Z,6.68
2023-09-17T18:02:15.968Z,6.80
2023-09-17T18:07:18.831Z,6.90
2023-09-17T18:12:21.628Z,6.50
2023-09-17T18:17:26.938Z,8.52
2023-09-17T18:22:30.786Z,8.30
2023-09-17T18:27:33.516Z,7.03
2023-09-17T18:32:36.288Z,6.15
2023-09-17T18:37:39.030Z,6.75
2023-09-17T18:42:41.726Z,5.82
2023-09-17T18:47:44.800Z,6.13
2023-09-17T18:52:47.573Z,6.10
2023-09-17T18:57:50.616Z,6.10
2023-09-17T19:02:53.452Z,6.47
2023-09-17T19:07:56.435Z,5.70
2023-09-17T19:12:59.098Z,6.15
2023-09-17T19:18:01.903Z,6.68
2023-09-17T19:23:04.776Z,5.93
2023-09-17T19:28:10.371Z,6.47
2023-09-17T19:33:14.450Z,6.25
2023-09-17T19:38:17.397Z,13.07
2023-09-17T19:43:20.260Z,7.57
2023-09-17T19:48:23.452Z,7.53
2023-09-17T19:53:26.262Z,6.85
2023-09-17T19:58:28.962Z,7.75
2023-09-17T20:03:31.802Z,7.68
2023-09-17T20:08:34.640Z,7.40
2023-09-17T20:13:37.986Z,7.82
2023-09-17T20:18:42.344Z,7.70
2023-09-17T20:23:45.119Z,7.88
2023-09-17T20:28:49.501Z,8.23
2023-09-17T20:33:52.283Z,8.02
2023-09-17T20:38:55.048Z,14.95
2023-09-17T20:43:58.014Z,9.27
2023-09-17T20:49:01.152Z,8.43
2023-09-17T20:54:04.248Z,7.78
2023-09-17T20:59:06.923Z,8.02
2023-09-17T21:04:10.212Z,8.60
2023-09-17T21:09:31.202Z,8.27
2023-09-17T21:14:33.870Z,8.65
2023-09-17T21:19:36.504Z,8.23
2023-09-17T21:24:39.865Z,8.20
2023-09-17T21:29:42.534Z,8.00
2023-09-17T21:34:45.091Z,8.75
2023-09-17T21:39:47.720Z,8.25
2023-09-17T21:44:50.420Z,8.68
2023-09-17T21:49:55.106Z,8.23
2023-09-17T21:54:58.388Z,8.60
2023-09-17T22:00:01.080Z,8.88
2023-09-17T22:05:05.149Z,8.50
2023-09-17T22:10:08.290Z,8.45
2023-09-17T22:15:11.480Z,8.93
2023-09-17T22:20:19.997Z,9.05
2023-09-17T22:25:23.762Z,8.70
2023-09-17T22:30:27.178Z,8.55
2023-09-17T22:35:29.842Z,8.85
2023-09-17T22:40:32.721Z,9.05
2023-09-17T22:45:39.374Z,8.38
2023-09-17T22:50:41.994Z,9.18
2023-09-17T22:55:44.640Z,8.40
2023-09-17T23:00:47.323Z,8.77
2023-09-17T23:05:50.041Z,7.55
2023-09-17T23:11:00.127Z,8.18
2023-09-17T23:16:03.187Z,12.88
2023-09-17T23:21:05.997Z,9.82
2023-09-17T23:26:09.347Z,7.57
2023-09-17T23:31:12.128Z,7.20
2023-09-17T23:36:14.702Z,7.20
2023-09-17T23:41:20.589Z,6.82
2023-09-17T23:46:23.922Z,6.43
2023-09-17T23:51:26.825Z,6.28
2023-09-17T23:56:29.453Z,7.15
